sensor_id;sensor_type;location;lat;lon;timestamp;P1;durP1;ratioP1;P2;durP2;ratioP2
63193;SDS011;49289;51.670;5.624;2023-02-15T00:54:59;37.10;;;22.00;;
63193;SDS011;49289;51.670;5.624;2023-02-15T00:56:46;34.80;;;21.80;;
63193;SDS011;49289;51.670;5.624;2023-02-15T00:58:33;37.40;;;22.10;;
63193;SDS011;49289;51.670;5.624;2023-02-15T01:00:20;35.00;;;21.60;;
63193;SDS011;49289;51.670;5.624;2023-02-15T01:02:10;38.20;;;22.10;;
63193;SDS011;49289;51.670;5.624;2023-02-15T01:03:58;37.30;;;21.90;;
63193;SDS011;49289;51.670;5.624;2023-02-15T01:05:45;37.20;;;21.70;;
63193;SDS011;49289;51.670;5.624;2023-02-15T01:07:33;39.10;;;22.10;;
63193;SDS011;49289;51.670;5.624;2023-02-15T01:09:21;32.90;;;21.60;;
63193;SDS011;49289;51.670;5.624;2023-02-15T01:11:10;33.70;;;21.50;;
63193;SDS011;49289;51.670;5.624;2023-02-15T01:12:58;36.70;;;21.70;;
63193;SDS011;49289;51.670;5.624;2023-02-15T01:14:46;35.20;;;21.40;;
63193;SDS011;49289;51.670;5.624;2023-02-15T01:16:34;37.30;;;22.60;;
63193;SDS011;49289;51.670;5.624;2023-02-15T01:18:21;34.30;;;20.40;;
63193;SDS011;49289;51.670;5.624;2023-02-15T01:20:09;34.40;;;21.20;;
63193;SDS011;49289;51.670;5.624;2023-02-15T01:21:59;31.50;;;20.20;;
63193;SDS011;49289;51.670;5.624;2023-02-15T01:23:47;33.20;;;21.50;;
63193;SDS011;49289;51.670;5.624;2023-02-15T01:25:35;35.30;;;21.20;;
63193;SDS011;49289;51.670;5.624;2023-02-15T01:27:23;34.20;;;21.50;;
63193;SDS011;49289;51.670;5.624;2023-02-15T01:29:13;33.40;;;20.80;;
63193;SDS011;49289;51.670;5.624;2023-02-15T01:31:03;34.00;;;21.10;;
63193;SDS011;49289;51.670;5.624;2023-02-15T01:32:51;33.20;;;20.80;;
63193;SDS011;49289;51.670;5.624;2023-02-15T01:34:39;33.50;;;20.90;;
63193;SDS011;49289;51.670;5.624;2023-02-15T01:36:27;32.80;;;20.50;;
63193;SDS011;49289;51.670;5.624;2023-02-15T01:38:14;33.60;;;21.30;;
63193;SDS011;49289;51.670;5.624;2023-02-15T01:40:01;34.20;;;21.30;;
63193;SDS011;49289;51.670;5.624;2023-02-15T01:41:50;33.00;;;20.90;;
63193;SDS011;49289;51.670;5.624;2023-02-15T01:43:45;35.30;;;21.10;;
63193;SDS011;49289;51.670;5.624;2023-02-15T01:46:03;32.80;;;20.30;;
63193;SDS011;49289;51.670;5.624;2023-02-15T01:47:53;33.20;;;19.70;;
63193;SDS011;49289;51.670;5.624;2023-02-15T01:49:41;32.20;;;20.70;;
63193;SDS011;49289;51.670;5.624;2023-02-15T01:51:30;32.20;;;21.00;;
63193;SDS011;49289;51.670;5.624;2023-02-15T01:53:19;33.00;;;20.40;;
63193;SDS011;49289;51.670;5.624;2023-02-15T01:55:07;37.40;;;21.20;;
63193;SDS011;49289;51.670;5.624;2023-02-15T01:56:56;31.20;;;20.00;;
63193;SDS011;49289;51.670;5.624;2023-02-15T01:58:45;34.70;;;20.70;;
63193;SDS011;49289;51.670;5.624;2023-02-15T02:00:33;30.80;;;20.00;;
63193;SDS011;49289;51.670;5.624;2023-02-15T02:02:21;34.80;;;20.50;;
63193;SDS011;49289;51.670;5.624;2023-02-15T02:04:11;34.30;;;20.60;;
63193;SDS011;49289;51.670;5.624;2023-02-15T02:05:59;35.60;;;20.40;;
63193;SDS011;49289;51.670;5.624;2023-02-15T02:07:47;32.20;;;20.00;;
63193;SDS011;49289;51.670;5.624;2023-02-15T02:09:35;28.70;;;19.20;;
63193;SDS011;49289;51.670;5.624;2023-02-15T02:11:23;31.10;;;19.80;;
63193;SDS011;49289;51.670;5.624;2023-02-15T02:13:11;32.90;;;19.90;;
63193;SDS011;49289;51.670;5.624;2023-02-15T02:14:58;32.20;;;19.80;;
63193;SDS011;49289;51.670;5.624;2023-02-15T02:16:46;32.10;;;19.40;;
63193;SDS011;49289;51.670;5.624;2023-02-15T02:18:37;30.50;;;19.20;;
63193;SDS011;49289;51.670;5.624;2023-02-15T02:20:35;29.30;;;19.30;;
63193;SDS011;49289;51.670;5.624;2023-02-15T02:22:39;32.00;;;19.70;;
63193;SDS011;49289;51.670;5.624;2023-02-15T02:24:51;31.00;;;19.50;;
63193;SDS011;49289;51.670;5.624;2023-02-15T02:29:18;33.60;;;19.00;;
63193;SDS011;49289;51.670;5.624;2023-02-15T02:31:28;33.60;;;20.00;;
63193;SDS011;49289;51.670;5.624;2023-02-15T02:35:38;33.10;;;19.30;;
63193;SDS011;49289;51.670;5.624;2023-02-15T02:37:27;31.10;;;19.90;;
63193;SDS011;49289;51.670;5.624;2023-02-15T02:39:19;32.50;;;19.50;;
63193;SDS011;49289;51.670;5.624;2023-02-15T02:41:10;33.30;;;19.10;;
63193;SDS011;49289;51.670;5.624;2023-02-15T02:42:59;31.30;;;19.40;;
63193;SDS011;49289;51.670;5.624;2023-02-15T02:44:47;32.10;;;19.70;;
63193;SDS011;49289;51.670;5.624;2023-02-15T02:46:37;34.90;;;20.80;;
63193;SDS011;49289;51.670;5.624;2023-02-15T02:48:25;32.70;;;19.90;;
63193;SDS011;49289;51.670;5.624;2023-02-15T02:50:15;33.90;;;19.90;;
63193;SDS011;49289;51.670;5.624;2023-02-15T02:52:04;33.00;;;19.10;;
63193;SDS011;49289;51.670;5.624;2023-02-15T02:53:51;30.30;;;19.20;;
63193;SDS011;49289;51.670;5.624;2023-02-15T02:55:39;30.00;;;19.00;;
63193;SDS011;49289;51.670;5.624;2023-02-15T02:57:27;30.50;;;19.80;;
63193;SDS011;49289;51.670;5.624;2023-02-15T02:59:15;33.80;;;19.90;;
63193;SDS011;49289;51.670;5.624;2023-02-15T03:01:02;30.70;;;19.10;;
63193;SDS011;49289;51.670;5.624;2023-02-15T03:02:50;32.90;;;19.50;;
63193;SDS011;49289;51.670;5.624;2023-02-15T03:04:40;29.90;;;18.90;;
63193;SDS011;49289;51.670;5.624;2023-02-15T03:06:29;35.10;;;20.10;;
63193;SDS011;49289;51.670;5.624;2023-02-15T03:08:17;32.10;;;19.00;;
63193;SDS011;49289;51.670;5.624;2023-02-15T03:10:05;31.30;;;19.50;;
63193;SDS011;49289;51.670;5.624;2023-02-15T03:11:52;32.10;;;19.30;;
63193;SDS011;49289;51.670;5.624;2023-02-15T03:13:39;30.00;;;19.00;;
63193;SDS011;49289;51.670;5.624;2023-02-15T03:15:29;30.30;;;19.30;;
63193;SDS011;49289;51.670;5.624;2023-02-15T03:17:17;29.10;;;18.90;;
63193;SDS011;49289;51.670;5.624;2023-02-15T03:19:05;32.30;;;18.80;;
63193;SDS011;49289;51.670;5.624;2023-02-15T03:20:52;32.50;;;18.50;;
63193;SDS011;49289;51.670;5.624;2023-02-15T03:22:42;29.50;;;18.50;;
63193;SDS011;49289;51.670;5.624;2023-02-15T03:24:30;32.50;;;19.40;;
63193;SDS011;49289;51.670;5.624;2023-02-15T03:26:18;32.10;;;19.10;;
63193;SDS011;49289;51.670;5.624;2023-02-15T03:28:06;30.10;;;18.40;;
63193;SDS011;49289;51.670;5.624;2023-02-15T03:29:55;31.40;;;19.20;;
63193;SDS011;49289;51.670;5.624;2023-02-15T03:31:45;30.10;;;18.20;;
63193;SDS011;49289;51.670;5.624;2023-02-15T03:33:32;31.50;;;18.80;;
63193;SDS011;49289;51.670;5.624;2023-02-15T03:35:19;33.70;;;20.20;;
63193;SDS011;49289;51.670;5.624;2023-02-15T03:37:15;31.20;;;18.70;;
63193;SDS011;49289;51.670;5.624;2023-02-15T03:38:57;31.80;;;18.90;;
63193;SDS011;49289;51.670;5.624;2023-02-15T03:40:44;30.50;;;19.00;;
63193;SDS011;49289;51.670;5.624;2023-02-15T03:42:31;30.60;;;18.90;;
63193;SDS011;49289;51.670;5.624;2023-02-15T03:44:22;29.20;;;18.10;;
63193;SDS011;49289;51.670;5.624;2023-02-15T03:46:11;35.50;;;20.50;;
63193;SDS011;49289;51.670;5.624;2023-02-15T03:47:57;32.50;;;19.50;;
63193;SDS011;49289;51.670;5.624;2023-02-15T03:49:45;34.60;;;19.40;;
63193;SDS011;49289;51.670;5.624;2023-02-15T03:51:34;31.70;;;19.80;;
63193;SDS011;49289;51.670;5.624;2023-02-15T03:53:22;34.00;;;19.90;;
63193;SDS011;49289;51.670;5.624;2023-02-15T03:55:09;34.50;;;19.10;;
63193;SDS011;49289;51.670;5.624;2023-02-15T03:56:58;30.60;;;18.80;;
63193;SDS011;49289;51.670;5.624;2023-02-15T03:58:46;31.20;;;19.10;;
63193;SDS011;49289;51.670;5.624;2023-02-15T04:00:34;32.50;;;19.70;;
63193;SDS011;49289;51.670;5.624;2023-02-15T04:02:23;31.10;;;19.30;;
63193;SDS011;49289;51.670;5.624;2023-02-15T04:04:11;32.00;;;19.80;;
63193;SDS011;49289;51.670;5.624;2023-02-15T04:06:00;30.10;;;18.60;;
63193;SDS011;49289;51.670;5.624;2023-02-15T04:07:49;33.00;;;19.10;;
63193;SDS011;49289;51.670;5.624;2023-02-15T04:09:37;31.50;;;19.20;;
63193;SDS011;49289;51.670;5.624;2023-02-15T04:11:25;29.30;;;18.50;;
63193;SDS011;49289;51.670;5.624;2023-02-15T04:13:13;31.70;;;19.40;;
63193;SDS011;49289;51.670;5.624;2023-02-15T04:15:01;29.40;;;18.60;;
63193;SDS011;49289;51.670;5.624;2023-02-15T04:16:50;32.40;;;18.80;;
63193;SDS011;49289;51.670;5.624;2023-02-15T04:18:37;33.50;;;19.70;;
63193;SDS011;49289;51.670;5.624;2023-02-15T04:20:24;33.70;;;18.80;;
63193;SDS011;49289;51.670;5.624;2023-02-15T04:22:11;29.40;;;18.60;;
63193;SDS011;49289;51.670;5.624;2023-02-15T04:23:58;30.80;;;18.40;;
63193;SDS011;49289;51.670;5.624;2023-02-15T04:25:48;31.30;;;18.80;;
63193;SDS011;49289;51.670;5.624;2023-02-15T04:27:36;30.00;;;18.60;;
63193;SDS011;49289;51.670;5.624;2023-02-15T04:29:24;32.40;;;18.30;;
63193;SDS011;49289;51.670;5.624;2023-02-15T04:31:10;30.20;;;18.40;;
63193;SDS011;49289;51.670;5.624;2023-02-15T04:33:00;28.50;;;18.50;;
63193;SDS011;49289;51.670;5.624;2023-02-15T04:34:48;30.00;;;18.30;;
63193;SDS011;49289;51.670;5.624;2023-02-15T04:36:36;29.50;;;17.30;;
63193;SDS011;49289;51.670;5.624;2023-02-15T04:38:26;30.60;;;18.50;;
63193;SDS011;49289;51.670;5.624;2023-02-15T04:40:14;31.40;;;18.40;;
63193;SDS011;49289;51.670;5.624;2023-02-15T04:42:01;30.30;;;17.40;;
63193;SDS011;49289;51.670;5.624;2023-02-15T04:43:51;28.30;;;16.80;;
63193;SDS011;49289;51.670;5.624;2023-02-15T04:45:39;29.80;;;18.30;;
63193;SDS011;49289;51.670;5.624;2023-02-15T04:47:27;29.90;;;17.70;;
63193;SDS011;49289;51.670;5.624;2023-02-15T04:49:15;29.00;;;18.00;;
63193;SDS011;49289;51.670;5.624;2023-02-15T04:51:04;31.40;;;18.30;;
63193;SDS011;49289;51.670;5.624;2023-02-15T04:52:53;31.40;;;18.80;;
63193;SDS011;49289;51.670;5.624;2023-02-15T04:54:41;31.40;;;18.60;;
63193;SDS011;49289;51.670;5.624;2023-02-15T04:56:29;32.90;;;19.20;;
63193;SDS011;49289;51.670;5.624;2023-02-15T04:58:17;31.70;;;18.80;;
63193;SDS011;49289;51.670;5.624;2023-02-15T05:00:05;29.90;;;19.00;;
63193;SDS011;49289;51.670;5.624;2023-02-15T05:01:53;33.10;;;19.20;;
63193;SDS011;49289;51.670;5.624;2023-02-15T05:03:41;30.90;;;18.50;;
63193;SDS011;49289;51.670;5.624;2023-02-15T05:05:28;31.20;;;18.40;;
63193;SDS011;49289;51.670;5.624;2023-02-15T05:07:16;30.00;;;18.80;;
63193;SDS011;49289;51.670;5.624;2023-02-15T05:09:04;32.70;;;19.00;;
63193;SDS011;49289;51.670;5.624;2023-02-15T05:10:54;33.40;;;19.70;;
63193;SDS011;49289;51.670;5.624;2023-02-15T05:12:42;35.00;;;19.80;;
63193;SDS011;49289;51.670;5.624;2023-02-15T05:14:30;31.60;;;19.00;;
63193;SDS011;49289;51.670;5.624;2023-02-15T05:16:17;35.90;;;19.30;;
63193;SDS011;49289;51.670;5.624;2023-02-15T05:18:04;32.50;;;19.60;;
63193;SDS011;49289;51.670;5.624;2023-02-15T05:19:53;32.90;;;19.20;;
63193;SDS011;49289;51.670;5.624;2023-02-15T05:21:41;34.60;;;20.80;;
63193;SDS011;49289;51.670;5.624;2023-02-15T05:23:31;36.70;;;20.10;;
63193;SDS011;49289;51.670;5.624;2023-02-15T05:25:19;35.30;;;20.90;;
63193;SDS011;49289;51.670;5.624;2023-02-15T05:27:07;34.50;;;20.50;;
63193;SDS011;49289;51.670;5.624;2023-02-15T05:28:56;38.10;;;21.40;;
63193;SDS011;49289;51.670;5.624;2023-02-15T05:30:44;37.80;;;20.60;;
63193;SDS011;49289;51.670;5.624;2023-02-15T05:32:32;36.90;;;21.20;;
63193;SDS011;49289;51.670;5.624;2023-02-15T05:34:22;39.20;;;21.10;;
63193;SDS011;49289;51.670;5.624;2023-02-15T05:36:11;34.40;;;20.10;;
63193;SDS011;49289;51.670;5.624;2023-02-15T05:37:58;36.30;;;20.50;;
63193;SDS011;49289;51.670;5.624;2023-02-15T05:39:46;35.20;;;21.10;;
63193;SDS011;49289;51.670;5.624;2023-02-15T05:41:35;37.00;;;20.10;;
63193;SDS011;49289;51.670;5.624;2023-02-15T05:43:23;34.60;;;20.30;;
63193;SDS011;49289;51.670;5.624;2023-02-15T05:45:12;35.50;;;21.50;;
63193;SDS011;49289;51.670;5.624;2023-02-15T05:47:00;39.70;;;21.90;;
63193;SDS011;49289;51.670;5.624;2023-02-15T05:48:50;36.00;;;20.50;;
63193;SDS011;49289;51.670;5.624;2023-02-15T05:50:38;35.60;;;19.90;;
63193;SDS011;49289;51.670;5.624;2023-02-15T05:52:26;33.70;;;19.40;;
63193;SDS011;49289;51.670;5.624;2023-02-15T05:54:16;36.50;;;20.20;;
63193;SDS011;49289;51.670;5.624;2023-02-15T05:56:04;35.20;;;20.30;;
63193;SDS011;49289;51.670;5.624;2023-02-15T05:57:52;38.70;;;21.10;;
63193;SDS011;49289;51.670;5.624;2023-02-15T05:59:42;35.30;;;20.40;;
63193;SDS011;49289;51.670;5.624;2023-02-15T06:01:30;37.00;;;20.90;;
63193;SDS011;49289;51.670;5.624;2023-02-15T06:03:18;39.00;;;20.30;;
63193;SDS011;49289;51.670;5.624;2023-02-15T06:05:08;37.50;;;20.10;;
63193;SDS011;49289;51.670;5.624;2023-02-15T06:06:56;33.10;;;19.80;;
63193;SDS011;49289;51.670;5.624;2023-02-15T06:08:43;34.40;;;20.40;;
63193;SDS011;49289;51.670;5.624;2023-02-15T06:10:30;34.70;;;19.30;;
63193;SDS011;49289;51.670;5.624;2023-02-15T06:12:18;35.50;;;19.50;;
63193;SDS011;49289;51.670;5.624;2023-02-15T06:14:06;32.80;;;19.20;;
63193;SDS011;49289;51.670;5.624;2023-02-15T06:15:55;36.50;;;20.40;;
63193;SDS011;49289;51.670;5.624;2023-02-15T06:17:43;33.70;;;20.20;;
63193;SDS011;49289;51.670;5.624;2023-02-15T06:19:30;36.70;;;21.00;;
63193;SDS011;49289;51.670;5.624;2023-02-15T06:21:20;34.10;;;19.10;;
63193;SDS011;49289;51.670;5.624;2023-02-15T06:23:07;35.00;;;19.80;;
63193;SDS011;49289;51.670;5.624;2023-02-15T06:24:56;38.70;;;20.30;;
63193;SDS011;49289;51.670;5.624;2023-02-15T06:26:44;34.30;;;19.50;;
63193;SDS011;49289;51.670;5.624;2023-02-15T06:28:31;35.70;;;20.20;;
63193;SDS011;49289;51.670;5.624;2023-02-15T06:30:19;30.90;;;19.80;;
63193;SDS011;49289;51.670;5.624;2023-02-15T06:32:06;34.00;;;19.80;;
63193;SDS011;49289;51.670;5.624;2023-02-15T06:33:54;34.60;;;20.30;;
63193;SDS011;49289;51.670;5.624;2023-02-15T06:35:44;38.70;;;21.30;;
63193;SDS011;49289;51.670;5.624;2023-02-15T06:37:33;35.90;;;20.50;;
63193;SDS011;49289;51.670;5.624;2023-02-15T06:39:21;38.60;;;20.90;;
63193;SDS011;49289;51.670;5.624;2023-02-15T06:41:09;39.80;;;21.50;;
63193;SDS011;49289;51.670;5.624;2023-02-15T06:42:57;36.40;;;21.80;;
63193;SDS011;49289;51.670;5.624;2023-02-15T06:44:45;41.30;;;21.80;;
63193;SDS011;49289;51.670;5.624;2023-02-15T06:46:32;39.30;;;21.00;;
63193;SDS011;49289;51.670;5.624;2023-02-15T06:48:19;39.40;;;21.80;;
63193;SDS011;49289;51.670;5.624;2023-02-15T06:50:09;37.90;;;20.80;;
63193;SDS011;49289;51.670;5.624;2023-02-15T06:51:58;37.70;;;21.50;;
63193;SDS011;49289;51.670;5.624;2023-02-15T06:53:48;41.10;;;22.30;;
63193;SDS011;49289;51.670;5.624;2023-02-15T06:55:35;36.60;;;20.80;;
63193;SDS011;49289;51.670;5.624;2023-02-15T06:57:22;41.50;;;22.00;;
63193;SDS011;49289;51.670;5.624;2023-02-15T06:59:10;40.00;;;22.20;;
63193;SDS011;49289;51.670;5.624;2023-02-15T07:01:00;35.60;;;20.70;;
63193;SDS011;49289;51.670;5.624;2023-02-15T07:02:48;39.80;;;21.50;;
63193;SDS011;49289;51.670;5.624;2023-02-15T07:04:41;38.90;;;21.40;;
63193;SDS011;49289;51.670;5.624;2023-02-15T07:06:29;39.10;;;21.50;;
63193;SDS011;49289;51.670;5.624;2023-02-15T07:08:19;42.80;;;22.40;;
63193;SDS011;49289;51.670;5.624;2023-02-15T07:10:07;43.00;;;22.50;;
63193;SDS011;49289;51.670;5.624;2023-02-15T07:11:56;44.40;;;22.40;;
63193;SDS011;49289;51.670;5.624;2023-02-15T07:13:44;42.80;;;23.60;;
63193;SDS011;49289;51.670;5.624;2023-02-15T07:15:32;44.00;;;23.60;;
63193;SDS011;49289;51.670;5.624;2023-02-15T07:17:21;42.20;;;22.80;;
63193;SDS011;49289;51.670;5.624;2023-02-15T07:19:09;40.70;;;22.40;;
63193;SDS011;49289;51.670;5.624;2023-02-15T07:20:56;40.40;;;23.10;;
63193;SDS011;49289;51.670;5.624;2023-02-15T07:22:43;41.80;;;23.30;;
63193;SDS011;49289;51.670;5.624;2023-02-15T07:24:31;43.20;;;23.70;;
63193;SDS011;49289;51.670;5.624;2023-02-15T07:26:19;45.70;;;24.40;;
63193;SDS011;49289;51.670;5.624;2023-02-15T07:28:07;41.50;;;23.00;;
63193;SDS011;49289;51.670;5.624;2023-02-15T07:29:57;44.20;;;23.10;;
63193;SDS011;49289;51.670;5.624;2023-02-15T07:31:45;45.00;;;24.70;;
63193;SDS011;49289;51.670;5.624;2023-02-15T07:33:32;41.80;;;23.90;;
63193;SDS011;49289;51.670;5.624;2023-02-15T07:35:20;44.60;;;23.60;;
63193;SDS011;49289;51.670;5.624;2023-02-15T07:37:07;42.00;;;24.10;;
63193;SDS011;49289;51.670;5.624;2023-02-15T07:38:55;41.60;;;23.90;;
63193;SDS011;49289;51.670;5.624;2023-02-15T07:40:45;43.30;;;24.10;;
63193;SDS011;49289;51.670;5.624;2023-02-15T07:42:33;43.40;;;23.90;;
63193;SDS011;49289;51.670;5.624;2023-02-15T07:44:20;42.90;;;24.00;;
63193;SDS011;49289;51.670;5.624;2023-02-15T07:46:08;44.50;;;24.40;;
63193;SDS011;49289;51.670;5.624;2023-02-15T07:47:57;45.90;;;25.10;;
63193;SDS011;49289;51.670;5.624;2023-02-15T07:49:45;44.70;;;25.30;;
63193;SDS011;49289;51.670;5.624;2023-02-15T07:51:35;48.00;;;26.40;;
63193;SDS011;49289;51.670;5.624;2023-02-15T07:53:23;47.90;;;27.00;;
63193;SDS011;49289;51.670;5.624;2023-02-15T07:55:12;47.60;;;26.40;;
63193;SDS011;49289;51.670;5.624;2023-02-15T07:57:00;47.10;;;27.60;;
63193;SDS011;49289;51.670;5.624;2023-02-15T07:58:47;48.10;;;26.40;;
63193;SDS011;49289;51.670;5.624;2023-02-15T08:00:34;50.20;;;26.80;;
63193;SDS011;49289;51.670;5.624;2023-02-15T08:02:24;44.10;;;26.60;;
63193;SDS011;49289;51.670;5.624;2023-02-15T08:04:12;53.50;;;26.50;;
63193;SDS011;49289;51.670;5.624;2023-02-15T08:06:00;46.50;;;26.50;;
63193;SDS011;49289;51.670;5.624;2023-02-15T08:07:48;48.20;;;27.00;;
63193;SDS011;49289;51.670;5.624;2023-02-15T08:09:35;48.60;;;26.90;;
63193;SDS011;49289;51.670;5.624;2023-02-15T08:11:24;47.90;;;27.10;;
63193;SDS011;49289;51.670;5.624;2023-02-15T08:13:12;46.50;;;26.20;;
63193;SDS011;49289;51.670;5.624;2023-02-15T08:14:59;49.30;;;27.70;;
63193;SDS011;49289;51.670;5.624;2023-02-15T08:16:47;49.20;;;26.50;;
63193;SDS011;49289;51.670;5.624;2023-02-15T08:18:33;46.90;;;27.10;;
63193;SDS011;49289;51.670;5.624;2023-02-15T08:20:22;46.80;;;26.30;;
63193;SDS011;49289;51.670;5.624;2023-02-15T08:22:11;49.50;;;27.00;;
63193;SDS011;49289;51.670;5.624;2023-02-15T08:23:57;45.90;;;26.70;;
63193;SDS011;49289;51.670;5.624;2023-02-15T08:25:44;48.60;;;27.20;;
63193;SDS011;49289;51.670;5.624;2023-02-15T08:27:34;47.10;;;26.90;;
63193;SDS011;49289;51.670;5.624;2023-02-15T08:29:23;47.30;;;27.00;;
63193;SDS011;49289;51.670;5.624;2023-02-15T08:31:11;47.10;;;26.90;;
63193;SDS011;49289;51.670;5.624;2023-02-15T08:32:59;47.10;;;26.90;;
63193;SDS011;49289;51.670;5.624;2023-02-15T08:34:48;45.40;;;26.20;;
63193;SDS011;49289;51.670;5.624;2023-02-15T08:36:36;47.60;;;27.00;;
63193;SDS011;49289;51.670;5.624;2023-02-15T08:38:25;43.20;;;26.20;;
63193;SDS011;49289;51.670;5.624;2023-02-15T08:40:27;47.60;;;26.60;;
63193;SDS011;49289;51.670;5.624;2023-02-15T08:42:16;45.50;;;26.40;;
63193;SDS011;49289;51.670;5.624;2023-02-15T08:44:04;44.60;;;26.70;;
63193;SDS011;49289;51.670;5.624;2023-02-15T08:45:50;43.80;;;26.20;;
63193;SDS011;49289;51.670;5.624;2023-02-15T08:47:38;41.10;;;24.90;;
63193;SDS011;49289;51.670;5.624;2023-02-15T08:49:28;40.50;;;24.80;;
63193;SDS011;49289;51.670;5.624;2023-02-15T08:51:17;43.40;;;25.30;;
63193;SDS011;49289;51.670;5.624;2023-02-15T08:53:06;41.80;;;24.70;;
63193;SDS011;49289;51.670;5.624;2023-02-15T08:54:53;42.20;;;24.70;;
63193;SDS011;49289;51.670;5.624;2023-02-15T08:56:41;39.60;;;24.40;;
63193;SDS011;49289;51.670;5.624;2023-02-15T08:58:27;40.90;;;24.80;;
63193;SDS011;49289;51.670;5.624;2023-02-15T09:00:15;41.10;;;25.20;;
63193;SDS011;49289;51.670;5.624;2023-02-15T09:02:03;38.00;;;24.40;;
63193;SDS011;49289;51.670;5.624;2023-02-15T09:03:54;38.60;;;23.40;;
63193;SDS011;49289;51.670;5.624;2023-02-15T09:05:37;43.20;;;23.90;;
63193;SDS011;49289;51.670;5.624;2023-02-15T09:07:25;36.50;;;22.90;;
63193;SDS011;49289;51.670;5.624;2023-02-15T09:09:15;38.70;;;24.00;;
63193;SDS011;49289;51.670;5.624;2023-02-15T09:11:10;40.30;;;22.70;;
63193;SDS011;49289;51.670;5.624;2023-02-15T09:12:57;35.90;;;22.90;;
63193;SDS011;49289;51.670;5.624;2023-02-15T09:14:45;38.70;;;22.80;;
63193;SDS011;49289;51.670;5.624;2023-02-15T09:16:35;36.20;;;22.80;;
63193;SDS011;49289;51.670;5.624;2023-02-15T09:18:23;34.10;;;22.60;;
63193;SDS011;49289;51.670;5.624;2023-02-15T09:20:12;36.30;;;23.30;;
63193;SDS011;49289;51.670;5.624;2023-02-15T09:22:02;37.70;;;23.00;;
63193;SDS011;49289;51.670;5.624;2023-02-15T09:23:50;39.40;;;23.00;;
63193;SDS011;49289;51.670;5.624;2023-02-15T09:25:37;37.10;;;23.10;;
63193;SDS011;49289;51.670;5.624;2023-02-15T09:27:24;36.30;;;21.70;;
63193;SDS011;49289;51.670;5.624;2023-02-15T09:29:12;38.00;;;22.90;;
63193;SDS011;49289;51.670;5.624;2023-02-15T09:30:59;33.40;;;21.50;;
63193;SDS011;49289;51.670;5.624;2023-02-15T09:32:52;35.10;;;22.00;;
63193;SDS011;49289;51.670;5.624;2023-02-15T09:34:39;38.00;;;23.10;;
63193;SDS011;49289;51.670;5.624;2023-02-15T09:36:28;35.30;;;22.20;;
63193;SDS011;49289;51.670;5.624;2023-02-15T09:38:15;35.20;;;22.00;;
63193;SDS011;49289;51.670;5.624;2023-02-15T09:40:04;37.80;;;23.50;;
63193;SDS011;49289;51.670;5.624;2023-02-15T09:41:59;35.90;;;22.80;;
63193;SDS011;49289;51.670;5.624;2023-02-15T09:44:02;35.40;;;21.80;;
63193;SDS011;49289;51.670;5.624;2023-02-15T09:45:54;35.20;;;21.90;;
63193;SDS011;49289;51.670;5.624;2023-02-15T09:50:16;32.80;;;21.20;;
63193;SDS011;49289;51.670;5.624;2023-02-15T09:52:06;34.40;;;21.20;;
63193;SDS011;49289;51.670;5.624;2023-02-15T09:54:03;36.80;;;21.30;;
63193;SDS011;49289;51.670;5.624;2023-02-15T09:55:54;33.90;;;21.40;;
63193;SDS011;49289;51.670;5.624;2023-02-15T09:57:42;32.30;;;20.30;;
63193;SDS011;49289;51.670;5.624;2023-02-15T09:59:30;31.20;;;20.30;;
63193;SDS011;49289;51.670;5.624;2023-02-15T10:01:22;33.40;;;20.40;;
63193;SDS011;49289;51.670;5.624;2023-02-15T10:03:14;33.20;;;21.20;;
63193;SDS011;49289;51.670;5.624;2023-02-15T10:05:08;31.10;;;20.00;;
63193;SDS011;49289;51.670;5.624;2023-02-15T10:07:00;32.80;;;20.50;;
63193;SDS011;49289;51.670;5.624;2023-02-15T10:08:54;30.50;;;20.10;;
63193;SDS011;49289;51.670;5.624;2023-02-15T10:10:48;33.70;;;20.00;;
63193;SDS011;49289;51.670;5.624;2023-02-15T10:12:39;32.40;;;20.50;;
63193;SDS011;49289;51.670;5.624;2023-02-15T10:14:35;30.10;;;19.80;;
63193;SDS011;49289;51.670;5.624;2023-02-15T10:16:28;31.90;;;21.30;;
63193;SDS011;49289;51.670;5.624;2023-02-15T10:18:21;30.80;;;20.40;;
63193;SDS011;49289;51.670;5.624;2023-02-15T10:20:17;31.80;;;19.60;;
63193;SDS011;49289;51.670;5.624;2023-02-15T10:22:06;33.10;;;19.90;;
63193;SDS011;49289;51.670;5.624;2023-02-15T10:24:05;28.90;;;19.80;;
63193;SDS011;49289;51.670;5.624;2023-02-15T10:26:04;31.10;;;19.80;;
63193;SDS011;49289;51.670;5.624;2023-02-15T10:27:51;31.80;;;20.80;;
63193;SDS011;49289;51.670;5.624;2023-02-15T10:29:42;30.40;;;20.00;;
63193;SDS011;49289;51.670;5.624;2023-02-15T10:31:31;30.30;;;20.20;;
63193;SDS011;49289;51.670;5.624;2023-02-15T10:33:20;31.80;;;20.10;;
63193;SDS011;49289;51.670;5.624;2023-02-15T10:34:58;31.20;;;20.80;;
63193;SDS011;49289;51.670;5.624;2023-02-15T10:36:52;34.60;;;21.10;;
63193;SDS011;49289;51.670;5.624;2023-02-15T10:38:42;34.40;;;20.90;;
63193;SDS011;49289;51.670;5.624;2023-02-15T10:40:39;30.00;;;20.40;;
63193;SDS011;49289;51.670;5.624;2023-02-15T10:42:29;31.30;;;21.00;;
63193;SDS011;49289;51.670;5.624;2023-02-15T10:44:22;30.90;;;20.90;;
63193;SDS011;49289;51.670;5.624;2023-02-15T10:46:15;31.70;;;20.60;;
63193;SDS011;49289;51.670;5.624;2023-02-15T10:48:06;32.60;;;21.20;;
63193;SDS011;49289;51.670;5.624;2023-02-15T10:50:00;30.70;;;19.40;;
63193;SDS011;49289;51.670;5.624;2023-02-15T10:51:56;32.40;;;21.40;;
63193;SDS011;49289;51.670;5.624;2023-02-15T10:53:51;32.20;;;20.70;;
63193;SDS011;49289;51.670;5.624;2023-02-15T10:55:46;32.90;;;20.90;;
63193;SDS011;49289;51.670;5.624;2023-02-15T10:57:34;27.50;;;20.00;;
63193;SDS011;49289;51.670;5.624;2023-02-15T10:59:36;30.20;;;20.40;;
63193;SDS011;49289;51.670;5.624;2023-02-15T11:01:22;33.30;;;20.00;;
63193;SDS011;49289;51.670;5.624;2023-02-15T11:03:20;31.30;;;20.50;;
63193;SDS011;49289;51.670;5.624;2023-02-15T11:05:15;30.70;;;19.90;;
63193;SDS011;49289;51.670;5.624;2023-02-15T11:07:04;29.00;;;19.20;;
63193;SDS011;49289;51.670;5.624;2023-02-15T11:08:52;28.60;;;19.50;;
63193;SDS011;49289;51.670;5.624;2023-02-15T11:10:38;31.40;;;19.80;;
63193;SDS011;49289;51.670;5.624;2023-02-15T11:12:27;26.80;;;19.50;;
63193;SDS011;49289;51.670;5.624;2023-02-15T11:14:17;30.90;;;19.30;;
63193;SDS011;49289;51.670;5.624;2023-02-15T11:16:05;28.70;;;19.80;;
63193;SDS011;49289;51.670;5.624;2023-02-15T11:17:55;27.70;;;19.20;;
63193;SDS011;49289;51.670;5.624;2023-02-15T11:19:42;30.60;;;19.00;;
63193;SDS011;49289;51.670;5.624;2023-02-15T11:21:32;28.00;;;19.00;;
63193;SDS011;49289;51.670;5.624;2023-02-15T11:23:20;30.80;;;20.10;;
63193;SDS011;49289;51.670;5.624;2023-02-15T11:25:14;28.50;;;18.90;;
63193;SDS011;49289;51.670;5.624;2023-02-15T11:27:02;28.30;;;19.40;;
63193;SDS011;49289;51.670;5.624;2023-02-15T11:28:51;28.30;;;18.60;;
63193;SDS011;49289;51.670;5.624;2023-02-15T11:30:40;32.50;;;19.50;;
63193;SDS011;49289;51.670;5.624;2023-02-15T11:32:28;28.00;;;18.90;;
63193;SDS011;49289;51.670;5.624;2023-02-15T11:34:19;30.50;;;19.90;;
63193;SDS011;49289;51.670;5.624;2023-02-15T11:36:06;29.70;;;19.50;;
63193;SDS011;49289;51.670;5.624;2023-02-15T11:37:53;31.00;;;20.00;;
63193;SDS011;49289;51.670;5.624;2023-02-15T11:39:43;30.20;;;19.90;;